Nearby METAR Reports

 

KMTN - Baltimore/Martin, Maryland, USA
Distance from station: SSE 8mi, 13km
Updated: Wed, 22-Oct-2014 5:09am EDT

 Wind from calm
Wind: Calm
Visibility: 4 miles , 6 km
2014/10/22 09:09 KMTN 220909Z AUTO 00000KT 4SM +VCTSRA OVC012 12/12 A2988 RMK AO2 P0004 LTG DSNT E
KDMH - Baltimore/Dwntwn, Maryland, USA
Distance from station: SW 12mi, 19km
Updated: Wed, 22-Oct-2014 4:54am EDT

 
Temperature: 55°F , 13°C
Dew Point: 52°F , 11°C
Humidity: 88%
Barometer: 29.86 inHg , 1011.2 hPa
2014/10/22 08:54 KDMH 220854Z AUTO 13/11 A2986 RMK AO1 SLP112 P0001 60021 T01280106 55003
 
KBWI - Balto/Wash Intl, Maryland, USA
Distance from station: SSW 20mi, 33km
Updated: Wed, 22-Oct-2014 5:11am EDT
Light rain, Overcast
Light rain, Overcast
 Wind from N
Wind: N 8 mph , 13 km/h
Temperature: 54°F , 12°C
Dew Point: 52°F , 11°C
Humidity: 94%
Barometer: 29.86 inHg , 1011.2 hPa
Summary: Light rain
Clouds: Overcast
Visibility: 8 miles , 13 km
Cloud details: Partly cloudy 1100 ft
Overcast 6000 ft
2014/10/22 09:11 KBWI 220911Z 35007KT 8SM -RA SCT011 OVC060 12/11 A2986 RMK AO2 P0000
KDMW - Carroll Cnty, Maryland, USA
Distance from station: WNW 30mi, 48km
Updated: Wed, 22-Oct-2014 5:10am EDT
Nearby thunderstorm, Rain, Overcast
Nearby thunderstorm, Rain, Overcast
 Wind from N
Wind: N 7 mph , 11 km/h
Temperature: 52°F , 11°C
Dew Point: 48°F , 9°C
Humidity: 88%
Barometer: 29.90 inHg , 1012.5 hPa
Summary: Nearby thunderstorm, Rain
Clouds: Overcast
Visibility: 5 miles , 8 km
Cloud details: Partly cloudy 800 ft
Mostly cloudy 3600 ft
Overcast 6000 ft
2014/10/22 09:10 KDMW 220910Z AUTO 36006KT 5SM VCTSRA SCT008 BKN036 OVC060 11/09 A2990 RMK AO2 P0003
 
KNAK - Annapolis/Naval, Maryland, USA
Distance from station: S 30mi, 48km
Updated: Wed, 22-Oct-2014 5:24am EDT
Light rain, Mist, Overcast
Light rain, Mist, Overcast
 Wind from N
Wind: N 13 mph , 20 km/h
Temperature: 55°F , 13°C
Dew Point: 54°F , 12°C
Humidity: 94%
Barometer: 29.84 inHg , 1010.5 hPa
Summary: Light rain, Mist
Clouds: Overcast
Visibility: 6 miles , 10 km
Cloud details: Mostly cloudy 1300 ft
Overcast 6500 ft
2014/10/22 09:24 KNAK 220924Z AUTO 35011KT 6SM -RA BR BKN013 OVC065 13/12 A2984 RMK AO2 P0001 T01330117
KW29 - Stevensville, Maryland, USA
Distance from station: SSE 31mi, 50km
Updated: Wed, 22-Oct-2014 5:10am EDT
Nearby thunderstorm, Drizzle
Nearby thunderstorm, Drizzle
 Wind from N
Wind: N 13 mph , 20 km/h, Gust: 21 mph , 33 km/h
Temperature: 54°F , 12°C
Dew Point: 52°F , 11°C
Humidity: 94%
Barometer: 29.84 inHg , 1010.5 hPa
Summary: Nearby thunderstorm, Drizzle
Visibility: 10 miles , 16 km
2014/10/22 09:10 KW29 220910Z AUTO 01011G18KT 10SM VCTSDZ 12/11 A2984 RMK AO1 LTG DSNT NE
 
KCGS - College Park, Maryland, USA
Distance from station: SW 38mi, 61km
Updated: Wed, 22-Oct-2014 5:10am EDT
Overcast
Overcast
 Wind from NNW
Wind: NNW 3 mph , 6 km/h
Temperature: 54°F , 12°C
Dew Point: 52°F , 11°C
Humidity: 94%
Barometer: 29.86 inHg , 1011.2 hPa
Clouds: Overcast
Visibility: 7 miles , 11 km
Cloud details: Partly cloudy 1400 ft
Mostly cloudy 2200 ft
Overcast 6000 ft
2014/10/22 09:10 KCGS 220910Z AUTO 33003KT 7SM SCT014 BKN022 OVC060 12/11 A2986 RMK AO1
KGAI - Gaithersburg, Maryland, USA
Distance from station: WSW 40mi, 65km
Updated: Wed, 22-Oct-2014 5:15am EDT
Overcast
Overcast
 Wind from calm
Wind: Calm
Temperature: 52°F , 11°C
Dew Point: 48°F , 9°C
Humidity: 88%
Barometer: 29.91 inHg , 1012.9 hPa
Clouds: Overcast
Visibility: 9 miles , 14 km
Cloud details: Overcast 1000 ft
2014/10/22 09:15 KGAI 220915Z 00000KT 9SM OVC010 11/09 A2991 RMK AO1
 
KTHV - York, Pennsylvania, USA
Distance from station: NNW 40mi, 65km
Updated: Wed, 22-Oct-2014 5:18am EDT
Overcast
Overcast
 Wind from W
Wind: W 6 mph , 9 km/h
Temperature: 52°F , 11°C
Dew Point: 50°F , 10°C
Humidity: 94%
Barometer: 29.90 inHg , 1012.5 hPa
Clouds: Overcast
Visibility: 7 miles , 11 km
Cloud details: Few Clouds 2000 ft
Mostly cloudy 3500 ft
Overcast 4600 ft
2014/10/22 09:18 KTHV 220918Z AUTO 27005KT 7SM FEW020 BKN035 OVC046 11/10 A2990 RMK AO2 RAE10 P0000 T01060100
KFDK - Frederick, Maryland, USA
Distance from station: W 47mi, 75km
Updated: Wed, 22-Oct-2014 5:10am EDT

 Wind from N
Wind: N 8 mph , 13 km/h
Visibility: 10 miles , 16 km
2014/10/22 09:10 KFDK 220910Z AUTO 36007KT 10SM -VCTSRA BKN026 BKN033 OVC039 13/11 A2993 RMK AO2 LTG DSNT E
 
KESN - Easton/Newnam, Maryland, USA
Distance from station: SSE 48mi, 78km
Updated: Wed, 22-Oct-2014 5:23am EDT
Partly cloudy
Partly cloudy
 Wind from N
Wind: N 7 mph , 11 km/h
Temperature: 55°F , 13°C
Dew Point: 55°F , 13°C
Humidity: 100%
Barometer: 29.85 inHg , 1010.8 hPa
Clouds: Partly cloudy
Visibility: 10 miles , 16 km
Cloud details: Partly cloudy 3100 ft
Partly cloudy 7000 ft
2014/10/22 09:23 KESN 220923Z AUTO 01006KT 10SM SCT031 SCT070 13/13 A2985 RMK AO2 T01250125
KDCA - Washington/Natl, Washington D.c., USA
Distance from station: SW 49mi, 79km
Updated: Wed, 22-Oct-2014 5:17am EDT
Light rain, Overcast
Light rain, Overcast
 Wind from NNW
Wind: NNW 13 mph , 20 km/h
Temperature: 55°F , 13°C
Dew Point: 50°F , 10°C
Humidity: 82%
Barometer: 29.87 inHg , 1011.5 hPa
Summary: Light rain
Clouds: Overcast
Visibility: 6 miles , 10 km
Cloud details: Few Clouds 1400 ft
Mostly cloudy 2500 ft
Overcast 6000 ft
2014/10/22 09:17 KDCA 220917Z 33011KT 6SM -RA FEW014 BKN025 OVC060 13/10 A2987 RMK AO2 P0003
 
KLNS - Lancaster, Pennsylvania, USA
Distance from station: N 49mi, 79km
Updated: Wed, 22-Oct-2014 5:25am EDT
Overcast
Overcast
 Wind from NNE
Wind: NNE 8 mph , 13 km/h
Temperature: 54°F , 12°C
Dew Point: 48°F , 9°C
Humidity: 82%
Barometer: 29.89 inHg , 1012.2 hPa
Clouds: Overcast
Visibility: 10 miles , 16 km
Cloud details: Mostly cloudy 2100 ft
Mostly cloudy 4100 ft
Overcast 8500 ft
2014/10/22 09:25 KLNS 220925Z AUTO 02007KT 10SM BKN021 BKN041 OVC085 12/09 A2989 RMK AO2 T01220089
KILG - Wilmington, Delaware, USA
Distance from station: ENE 50mi, 81km
Updated: Wed, 22-Oct-2014 5:17am EDT
Light rain, Overcast
Light rain, Overcast
 Wind from N
Wind: N 13 mph , 20 km/h
Temperature: 54°F , 12°C
Dew Point: 52°F , 11°C
Humidity: 94%
Barometer: 29.84 inHg , 1010.5 hPa
Summary: Light rain
Clouds: Overcast
Visibility: 10 miles , 16 km
Cloud details: Mostly cloudy 1500 ft
Overcast 6500 ft
2014/10/22 09:17 KILG 220917Z 36011KT 10SM -RA BKN015 OVC065 12/11 A2984 RMK AO2 LTG DSNT S AND SW P0002 T01220111